Bremgarten, Germany

10:13 PM CET on December 17, 2014 (GMT +0100)
black forest | Change Station
CLOSE
Current Station
Personal Weather Station
Location: Bad Krozingen, BADEN-WüRTTEMBERG
Elevation: 755 ft
Nearby Weather Stations

Elev 755 ft 47.92 °N, 7.70 °E | Updated 7 seconds ago

Light Drizzle
Light Drizzle Mist
46.4 °F
Feels Like 46 °F
N
0.9
Wind Variable Wind from NNE
Gusts 2.5 mph

Today
High -- | Low -- °F
--% Chance of Precip.
Yesterday
High -- | Low -- °F
Precip. -- in
8:13 AM 4:37 PM
Waning Crescent, 20% visible
Pressure 29.98 in
Visibility 2.2 miles
Clouds Few 100 ft
Scattered Clouds 200 ft
Mostly Cloudy 700 ft
Windchill 46 °F
Dew Point 43 °F
Humidity 87%
Rainfall 0.25 in
Snow Depth Not available.
UV 0.0 out of 12
Pollen Not available.
Air Quality Not available.
Flu Activity Not available.
METAR LFSB 172100Z 13004KT 3500 -DZ BR FEW001 SCT002 BKN007 06/06 Q1015 NOSIG

More Conditions Fewer Conditions

Pressure 29.98 in
Visibility 2.2 miles
Clouds Few 100 ft
Scattered Clouds 200 ft
Mostly Cloudy 700 ft
Windchill 46 °F
Dew Point 43 °F
Humidity 87%
Rainfall 0.25 in
Snow Depth Not available.
UV 0.0 out of 12
Pollen Not available.
Air Quality Not available.
Flu Activity Not available.
METAR LFSB 172100Z 13004KT 3500 -DZ BR FEW001 SCT002 BKN007 06/06 Q1015 NOSIG

More Conditions Fewer Conditions

10-Day Weather Forecast

Almanac

Astronomy

Dec. 17, 2014 Rise Set
Actual Time
Civil Twilight
Nautical Twilight
Astronomical Twilight
Moon
Length of Visible Light
Length of Day
Tomorrow will be .
, % of the Moon is Illuminated

Today's Extremes

Country Highs Country Lows

Community

WunderPhotos

Upload Photos

1,778,805 photos uploaded!

WunderBlogs® & News

Nearby

Air Quality

  Air Quality AQ Index Pollutant
Not available.

Snow Depth

Station Depth Elevation

Earthquake Activity

City Distance Mag. Time & Date
Minimum magnitude displayed is 2.5.

Coastal Water Temperatures

Place Temperature

Nearby Weather Stations